createdAt,value
2023-03-15T00:00:26.595Z,2.96
2023-03-15T00:03:05.121Z,3.02
2023-03-15T00:05:37.668Z,3.05
2023-03-15T00:08:05.741Z,3.02
2023-03-15T00:10:34.532Z,3.04
2023-03-15T00:13:03.421Z,3.06
2023-03-15T00:15:47.088Z,3.04
2023-03-15T00:18:16.257Z,3.08
2023-03-15T00:20:47.562Z,3.03
2023-03-15T00:23:23.316Z,3.03
2023-03-15T00:25:55.405Z,2.98
2023-03-15T00:28:23.141Z,3.07
2023-03-15T00:31:03.724Z,3.08
2023-03-15T00:33:37.260Z,3.12
2023-03-15T00:36:07.240Z,3.07
2023-03-15T00:38:36.054Z,3.06
2023-03-15T00:41:10.136Z,3.11
2023-03-15T00:43:47.536Z,3.12
2023-03-15T00:46:20.680Z,3.10
2023-03-15T00:48:52.249Z,3.05
2023-03-15T00:51:23.992Z,3.09
2023-03-15T00:54:02.499Z,3.10
2023-03-15T00:56:41.352Z,3.05
2023-03-15T00:59:12.694Z,3.06
2023-03-15T01:01:46.772Z,3.11
2023-03-15T01:04:16.593Z,3.13
2023-03-15T01:06:45.956Z,3.13
2023-03-15T01:09:16.122Z,3.22
2023-03-15T01:11:46.244Z,3.20
2023-03-15T01:14:16.589Z,3.18
2023-03-15T01:16:48.387Z,3.14
2023-03-15T01:19:22.493Z,3.19
2023-03-15T01:21:55.464Z,3.12
2023-03-15T01:24:36.026Z,3.24
2023-03-15T01:27:20.643Z,3.24
2023-03-15T01:29:53.759Z,3.17
2023-03-15T01:32:25.704Z,3.22
2023-03-15T01:34:54.812Z,3.20
2023-03-15T01:37:25.589Z,3.24
2023-03-15T01:39:54.015Z,3.21
2023-03-15T01:42:21.834Z,3.31
2023-03-15T01:44:55.535Z,3.27
2023-03-15T01:47:33.092Z,3.24
2023-03-15T01:50:11.977Z,3.21
2023-03-15T01:52:44.410Z,3.20
2023-03-15T01:55:20.980Z,3.22
2023-03-15T01:57:56.646Z,3.14
2023-03-15T02:00:28.072Z,3.13
2023-03-15T02:03:09.160Z,3.12
2023-03-15T02:05:47.157Z,3.07
2023-03-15T02:08:18.317Z,3.18
2023-03-15T02:10:49.956Z,3.19
2023-03-15T02:13:20.073Z,3.17
2023-03-15T02:15:48.969Z,3.15
2023-03-15T02:18:18.468Z,3.25
2023-03-15T02:20:52.495Z,3.19
2023-03-15T02:23:22.451Z,3.15
2023-03-15T02:26:03.275Z,3.17
2023-03-15T02:28:34.434Z,3.21
2023-03-15T02:31:10.580Z,3.28
2023-03-15T02:33:44.712Z,3.25
2023-03-15T02:36:18.524Z,3.24
2023-03-15T02:38:57.424Z,3.25
2023-03-15T02:41:36.944Z,3.23
2023-03-15T02:44:14.700Z,3.14
2023-03-15T02:46:46.685Z,2.98
2023-03-15T02:49:17.272Z,2.95
2023-03-15T02:51:50.248Z,2.94
2023-03-15T02:54:23.888Z,2.94
2023-03-15T02:56:51.839Z,2.83
2023-03-15T02:59:24.179Z,2.90
2023-03-15T03:01:53.082Z,2.84
2023-03-15T03:04:25.381Z,2.82
2023-03-15T03:07:01.045Z,2.82
2023-03-15T03:09:32.044Z,2.78
2023-03-15T03:12:03.740Z,2.80
2023-03-15T03:14:39.025Z,2.67
2023-03-15T03:17:16.252Z,2.78
2023-03-15T03:19:52.093Z,2.78
2023-03-15T03:22:20.532Z,2.84
2023-03-15T03:24:55.732Z,2.88
2023-03-15T03:27:31.623Z,2.91
2023-03-15T03:30:08.492Z,2.96
2023-03-15T03:32:39.719Z,2.99
2023-03-15T03:35:16.110Z,2.95
2023-03-15T03:37:45.477Z,2.98
2023-03-15T03:40:17.050Z,3.04
2023-03-15T03:42:48.420Z,3.05
2023-03-15T03:45:20.523Z,3.15
2023-03-15T03:47:57.292Z,3.17
2023-03-15T03:50:33.713Z,3.14
2023-03-15T03:53:02.153Z,3.14
2023-03-15T03:55:31.953Z,3.20
2023-03-15T03:58:03.354Z,3.19
2023-03-15T04:00:37.053Z,3.20
2023-03-15T04:03:15.348Z,3.19
2023-03-15T04:05:54.864Z,3.18
2023-03-15T04:08:23.788Z,3.13
2023-03-15T04:10:56.808Z,3.05
2023-03-15T04:13:32.421Z,3.05
2023-03-15T04:16:14.560Z,3.24
2023-03-15T04:18:56.839Z,3.28
2023-03-15T04:21:40.174Z,3.40
2023-03-15T04:24:19.233Z,3.42
2023-03-15T04:27:00.574Z,3.50
2023-03-15T04:29:38.131Z,3.60
2023-03-15T04:32:14.099Z,3.73
2023-03-15T04:34:48.949Z,3.58
2023-03-15T04:37:16.401Z,3.41
2023-03-15T04:39:48.343Z,3.09
2023-03-15T04:42:35.767Z,2.87
2023-03-15T04:45:10.127Z,2.68
2023-03-15T04:47:45.972Z,2.72
2023-03-15T04:50:18.968Z,2.67
2023-03-15T04:52:54.306Z,2.58
2023-03-15T04:55:28.210Z,2.54
2023-03-15T04:57:57.998Z,2.42
2023-03-15T05:00:33.831Z,2.43
2023-03-15T05:03:05.278Z,2.46
2023-03-15T05:05:36.678Z,2.40
2023-03-15T05:08:07.582Z,2.36
2023-03-15T05:10:40.151Z,2.22
2023-03-15T05:13:12.687Z,2.16
2023-03-15T05:15:43.608Z,2.15
2023-03-15T05:18:31.234Z,2.02
2023-03-15T05:21:02.384Z,2.00
2023-03-15T05:23:34.497Z,1.98
2023-03-15T05:26:11.702Z,1.84
2023-03-15T05:28:44.782Z,1.88
2023-03-15T05:31:15.987Z,1.91
2023-03-15T05:33:54.969Z,2.03
2023-03-15T05:36:30.066Z,2.07
2023-03-15T05:39:17.158Z,2.09
2023-03-15T05:41:50.987Z,2.11
2023-03-15T05:44:49.473Z,2.02
2023-03-15T05:47:17.647Z,2.00
2023-03-15T05:49:54.045Z,1.86
2023-03-15T05:52:25.158Z,1.61
2023-03-15T05:55:06.565Z,1.92
2023-03-15T05:57:38.234Z,1.84
2023-03-15T06:00:09.901Z,1.57
2023-03-15T06:02:43.697Z,1.61
2023-03-15T06:05:23.870Z,1.63
2023-03-15T06:08:02.119Z,1.50
2023-03-15T06:10:34.749Z,1.44
2023-03-15T06:13:17.903Z,1.63
2023-03-15T06:15:48.702Z,1.34
2023-03-15T06:18:20.875Z,1.30
2023-03-15T06:20:52.942Z,1.53
2023-03-15T06:23:35.581Z,1.61
2023-03-15T06:26:16.134Z,1.74
2023-03-15T06:29:05.264Z,1.87
2023-03-15T06:31:40.585Z,1.90
2023-03-15T06:34:38.223Z,1.94
2023-03-15T06:37:09.766Z,1.97
2023-03-15T06:39:43.706Z,1.99
2023-03-15T06:42:20.073Z,2.03
2023-03-15T06:44:54.034Z,2.16
2023-03-15T06:47:35.128Z,2.11
2023-03-15T06:50:13.838Z,2.19
2023-03-15T06:52:43.804Z,2.19
2023-03-15T06:55:30.766Z,2.19
2023-03-15T06:58:09.647Z,2.24
2023-03-15T07:00:43.088Z,2.23
2023-03-15T07:03:28.932Z,2.23
2023-03-15T07:05:59.852Z,2.34
2023-03-15T07:08:35.416Z,2.45
2023-03-15T07:11:04.476Z,2.46
2023-03-15T07:13:32.231Z,2.43
2023-03-15T07:16:02.669Z,2.51
2023-03-15T07:18:33.567Z,2.63
2023-03-15T07:21:05.151Z,2.67
2023-03-15T07:23:39.995Z,2.74
2023-03-15T07:26:08.807Z,2.72
2023-03-15T07:28:40.210Z,2.76
2023-03-15T07:31:11.846Z,2.74
2023-03-15T07:33:47.091Z,2.84
2023-03-15T07:36:15.157Z,2.94
2023-03-15T07:39:05.502Z,2.88
2023-03-15T07:41:39.914Z,2.99
2023-03-15T07:44:20.376Z,3.02
2023-03-15T07:46:56.195Z,3.10
2023-03-15T07:49:32.036Z,3.24
2023-03-15T07:52:00.433Z,3.25
2023-03-15T07:54:35.558Z,3.28
2023-03-15T07:57:04.077Z,3.39
2023-03-15T07:59:32.415Z,3.41
2023-03-15T08:02:03.704Z,3.50
2023-03-15T08:04:37.791Z,3.55
2023-03-15T08:07:08.577Z,3.61
2023-03-15T08:09:41.683Z,3.72
2023-03-15T08:12:14.948Z,3.79
2023-03-15T08:14:42.943Z,3.79
2023-03-15T08:17:13.400Z,3.79
2023-03-15T08:19:42.688Z,3.94
2023-03-15T08:22:16.944Z,3.99
2023-03-15T08:24:55.729Z,4.01
2023-03-15T08:27:28.885Z,4.18
2023-03-15T08:30:17.568Z,4.32
2023-03-15T08:32:51.784Z,4.27
2023-03-15T08:35:24.669Z,4.29
2023-03-15T08:38:01.210Z,4.32
2023-03-15T08:40:37.769Z,4.45
2023-03-15T08:43:18.918Z,4.54
2023-03-15T08:46:00.791Z,4.65
2023-03-15T08:48:34.057Z,4.84
2023-03-15T08:51:12.342Z,4.72
2023-03-15T08:53:47.895Z,4.94
2023-03-15T08:56:24.761Z,5.08
2023-03-15T08:58:58.985Z,5.15
2023-03-15T09:01:33.667Z,5.27
2023-03-15T09:04:06.482Z,5.30
2023-03-15T09:06:42.484Z,5.31
2023-03-15T09:09:11.740Z,5.32
2023-03-15T09:11:41.686Z,5.39
2023-03-15T09:14:10.249Z,5.46
2023-03-15T09:16:53.792Z,5.39
2023-03-15T09:19:41.532Z,5.57
2023-03-15T09:22:23.465Z,5.48
2023-03-15T09:24:55.674Z,5.45
2023-03-15T09:27:29.007Z,5.68
2023-03-15T09:30:05.972Z,5.65
2023-03-15T09:32:41.309Z,5.65
2023-03-15T09:35:19.598Z,5.81
2023-03-15T09:37:58.056Z,5.74
2023-03-15T09:40:28.862Z,5.86
2023-03-15T09:43:23.972Z,6.08
2023-03-15T09:46:08.571Z,6.16
2023-03-15T09:48:48.982Z,6.17
2023-03-15T09:51:35.535Z,6.05
2023-03-15T09:54:06.308Z,6.29
2023-03-15T09:56:45.923Z,6.08
2023-03-15T09:59:23.245Z,6.19
2023-03-15T10:02:02.436Z,6.31
2023-03-15T10:04:38.202Z,6.39
2023-03-15T10:07:14.824Z,6.30
2023-03-15T10:09:44.420Z,6.39
2023-03-15T10:12:17.130Z,6.41
2023-03-15T10:15:25.009Z,5.95
2023-03-15T10:18:16.222Z,6.23
2023-03-15T10:20:57.915Z,6.20
2023-03-15T10:23:39.849Z,6.22
2023-03-15T10:26:14.834Z,6.34
2023-03-15T10:28:53.157Z,6.48
2023-03-15T10:31:44.113Z,6.52
2023-03-15T10:34:25.750Z,6.36
2023-03-15T10:36:59.760Z,6.38
2023-03-15T10:39:41.249Z,6.54
2023-03-15T10:42:29.745Z,6.60
2023-03-15T10:45:11.992Z,6.84
2023-03-15T10:47:57.624Z,7.10
2023-03-15T10:50:40.957Z,6.94
2023-03-15T10:53:26.196Z,6.98
2023-03-15T10:56:05.485Z,7.36
2023-03-15T10:59:11.490Z,7.15
2023-03-15T11:01:52.464Z,7.48
2023-03-15T11:07:22.576Z,7.89
2023-03-15T11:09:55.684Z,7.98
2023-03-15T11:12:28.056Z,7.77
2023-03-15T11:15:05.571Z,7.86
2023-03-15T11:17:50.320Z,7.98
2023-03-15T11:20:34.683Z,8.04
2023-03-15T11:23:19.051Z,8.09
2023-03-15T11:26:29.468Z,8.45
2023-03-15T11:29:29.537Z,8.34
2023-03-15T11:32:04.194Z,8.42
2023-03-15T11:34:47.772Z,7.89
2023-03-15T11:37:24.421Z,7.65
2023-03-15T11:40:17.301Z,7.34
2023-03-15T11:42:55.899Z,7.57
2023-03-15T11:45:32.784Z,7.44
2023-03-15T11:48:13.643Z,7.80
2023-03-15T11:50:43.158Z,7.87
2023-03-15T11:53:17.724Z,8.04
2023-03-15T11:55:48.294Z,8.26
2023-03-15T11:58:37.321Z,8.04
2023-03-15T12:01:14.064Z,8.18
2023-03-15T12:03:52.046Z,8.24
2023-03-15T12:06:56.128Z,8.56
2023-03-15T12:09:59.931Z,8.75
2023-03-15T12:12:49.193Z,8.74
2023-03-15T12:15:46.281Z,9.07
2023-03-15T12:18:22.191Z,9.54
2023-03-15T12:21:15.502Z,9.41
2023-03-15T12:23:50.666Z,9.68
2023-03-15T12:26:42.431Z,10.03
2023-03-15T12:29:25.805Z,9.53
2023-03-15T12:32:19.692Z,10.32
2023-03-15T12:34:58.913Z,9.82
2023-03-15T12:37:47.319Z,9.18
2023-03-15T12:40:51.490Z,9.49
2023-03-15T12:43:53.974Z,8.68
2023-03-15T12:47:01.445Z,8.52
2023-03-15T12:49:45.665Z,8.29
2023-03-15T12:52:49.998Z,8.84
2023-03-15T12:55:31.532Z,8.81
2023-03-15T12:58:08.467Z,8.79
2023-03-15T13:00:45.348Z,8.26
2023-03-15T13:03:18.983Z,8.76
2023-03-15T13:06:04.695Z,8.84
2023-03-15T13:08:47.240Z,8.35
2023-03-15T13:11:24.517Z,8.74
2023-03-15T13:14:14.431Z,8.59
2023-03-15T13:16:56.208Z,8.66
2023-03-15T13:19:37.483Z,8.73
2023-03-15T13:22:18.926Z,8.40
2023-03-15T13:25:08.829Z,8.65
2023-03-15T13:27:53.841Z,8.57
2023-03-15T13:30:42.291Z,8.29
2023-03-15T13:33:27.291Z,8.91
2023-03-15T13:36:18.968Z,8.88
2023-03-15T13:38:53.751Z,8.36
2023-03-15T13:41:35.686Z,8.75
2023-03-15T13:44:17.958Z,9.03
2023-03-15T13:46:49.897Z,8.64
2023-03-15T13:49:35.487Z,8.65
2023-03-15T13:52:13.021Z,8.85
2023-03-15T13:54:46.079Z,9.04
2023-03-15T13:57:26.704Z,9.02
2023-03-15T14:00:19.202Z,8.83
2023-03-15T14:03:09.596Z,9.13
2023-03-15T14:05:51.047Z,9.10
2023-03-15T14:08:32.750Z,9.28
2023-03-15T14:11:13.162Z,9.10
2023-03-15T14:14:04.754Z,8.89
2023-03-15T14:16:57.323Z,9.00
2023-03-15T14:19:44.046Z,9.26
2023-03-15T14:22:22.802Z,9.16
2023-03-15T14:25:26.267Z,9.29
2023-03-15T14:28:21.154Z,9.02
2023-03-15T14:31:11.128Z,8.98
2023-03-15T14:34:20.407Z,9.04
2023-03-15T14:37:35.296Z,9.14
2023-03-15T14:40:37.944Z,9.10
2023-03-15T14:43:15.435Z,9.05
2023-03-15T14:45:55.504Z,8.69
2023-03-15T14:49:03.904Z,8.94
2023-03-15T14:51:48.417Z,9.05
2023-03-15T14:54:43.662Z,8.99
2023-03-15T14:57:23.711Z,8.95
2023-03-15T14:59:55.380Z,9.10
2023-03-15T15:02:28.943Z,9.06
2023-03-15T15:05:22.334Z,8.92
2023-03-15T15:07:57.741Z,8.82
2023-03-15T15:10:31.764Z,9.13
2023-03-15T15:13:15.543Z,8.85
2023-03-15T15:15:55.006Z,8.75
2023-03-15T15:18:31.108Z,8.93
2023-03-15T15:21:15.906Z,8.96
2023-03-15T15:24:01.349Z,9.04
2023-03-15T15:26:37.754Z,8.80
2023-03-15T15:29:14.012Z,8.87
2023-03-15T15:31:47.585Z,9.11
2023-03-15T15:34:17.464Z,8.80
2023-03-15T15:36:50.098Z,8.97
2023-03-15T15:39:33.233Z,9.04
2023-03-15T15:42:32.749Z,9.08
2023-03-15T15:45:11.033Z,8.88
2023-03-15T15:47:48.271Z,8.90
2023-03-15T15:50:24.691Z,8.99
2023-03-15T15:53:04.394Z,8.76
2023-03-15T15:55:45.082Z,8.88
2023-03-15T15:58:28.672Z,8.78
2023-03-15T16:01:09.708Z,9.06
2023-03-15T16:03:45.969Z,8.99
2023-03-15T16:06:34.137Z,8.99
2023-03-15T16:09:09.267Z,8.91
2023-03-15T16:11:43.301Z,8.86
2023-03-15T16:14:18.745Z,8.88
2023-03-15T16:16:49.608Z,8.72
2023-03-15T16:19:26.755Z,8.56
2023-03-15T16:21:55.065Z,8.80
2023-03-15T16:24:31.074Z,8.62
2023-03-15T16:27:12.383Z,8.68
2023-03-15T16:29:44.561Z,8.32
2023-03-15T16:32:43.041Z,8.43
2023-03-15T16:35:26.361Z,8.24
2023-03-15T16:38:10.302Z,8.18
2023-03-15T16:40:52.288Z,8.14
2023-03-15T16:43:31.737Z,8.11
2023-03-15T16:46:02.444Z,7.91
2023-03-15T16:48:33.313Z,7.86
2023-03-15T16:51:05.474Z,7.94
2023-03-15T16:53:47.974Z,7.84
2023-03-15T16:56:20.785Z,7.83
2023-03-15T16:58:55.078Z,7.77
2023-03-15T17:01:36.407Z,7.72
2023-03-15T17:04:07.779Z,7.71
2023-03-15T17:06:36.913Z,7.60
2023-03-15T17:09:12.904Z,7.59
2023-03-15T17:11:45.980Z,7.49
2023-03-15T17:14:17.313Z,7.36
2023-03-15T17:16:49.488Z,7.34
2023-03-15T17:19:19.058Z,7.25
2023-03-15T17:21:56.724Z,7.24
2023-03-15T17:24:30.775Z,7.17
2023-03-15T17:27:03.966Z,7.15
2023-03-15T17:29:44.804Z,7.09
2023-03-15T17:32:19.865Z,7.10
2023-03-15T17:34:52.563Z,7.08
2023-03-15T17:37:38.526Z,7.12
2023-03-15T17:40:22.030Z,7.07
2023-03-15T17:42:54.747Z,7.07
2023-03-15T17:45:27.831Z,6.97
2023-03-15T17:47:58.126Z,6.99
2023-03-15T17:50:30.191Z,6.93
2023-03-15T17:53:06.161Z,6.83
2023-03-15T17:55:40.157Z,6.83
2023-03-15T17:58:15.894Z,6.91
2023-03-15T18:00:49.873Z,6.82
2023-03-15T18:03:22.955Z,6.89
2023-03-15T18:05:52.058Z,6.92
2023-03-15T18:08:25.500Z,6.80
2023-03-15T18:10:55.854Z,6.78
2023-03-15T18:13:39.327Z,6.80
2023-03-15T18:16:17.027Z,6.81
2023-03-15T18:18:51.892Z,6.73
2023-03-15T18:21:32.844Z,6.74
2023-03-15T18:24:05.451Z,6.83
2023-03-15T18:26:41.889Z,6.79
2023-03-15T18:29:19.672Z,6.77
2023-03-15T18:31:50.846Z,6.71
2023-03-15T18:34:43.719Z,6.69
2023-03-15T18:37:16.302Z,6.65
2023-03-15T18:39:49.964Z,6.64
2023-03-15T18:42:26.097Z,6.74
2023-03-15T18:44:55.306Z,6.71
2023-03-15T18:47:28.251Z,6.67
2023-03-15T18:50:09.960Z,6.63
2023-03-15T18:52:40.721Z,6.58
2023-03-15T18:55:19.367Z,6.48
2023-03-15T18:57:52.474Z,6.54
2023-03-15T19:00:27.641Z,6.62
2023-03-15T19:03:02.404Z,6.57
2023-03-15T19:05:42.899Z,6.60
2023-03-15T19:08:12.563Z,6.61
2023-03-15T19:10:44.629Z,6.58
2023-03-15T19:13:22.750Z,6.51
2023-03-15T19:15:51.036Z,6.44
2023-03-15T19:18:20.439Z,6.47
2023-03-15T19:21:02.953Z,6.35
2023-03-15T19:23:39.300Z,6.38
2023-03-15T19:26:11.641Z,6.36
2023-03-15T19:28:40.605Z,6.41
2023-03-15T19:31:10.382Z,6.36
2023-03-15T19:33:50.205Z,6.37
2023-03-15T19:36:25.845Z,6.34
2023-03-15T19:39:06.953Z,6.39
2023-03-15T19:41:42.096Z,6.39
2023-03-15T19:44:36.919Z,6.45
2023-03-15T19:47:09.065Z,6.39
2023-03-15T19:49:41.468Z,6.41
2023-03-15T19:52:16.269Z,6.41
2023-03-15T19:54:48.378Z,6.32
2023-03-15T19:57:23.610Z,6.30
2023-03-15T19:59:54.429Z,6.32
2023-03-15T20:02:23.626Z,6.29
2023-03-15T20:05:00.694Z,6.25
2023-03-15T20:07:33.324Z,6.30
2023-03-15T20:10:05.164Z,6.22
2023-03-15T20:12:32.864Z,6.21
2023-03-15T20:15:10.289Z,6.22
2023-03-15T20:17:43.577Z,6.28
2023-03-15T20:20:35.622Z,6.22
2023-03-15T20:23:09.661Z,6.33
2023-03-15T20:25:41.426Z,6.20
2023-03-15T20:28:16.350Z,6.27
2023-03-15T20:30:51.245Z,6.14
2023-03-15T20:33:23.618Z,6.17
2023-03-15T20:35:53.383Z,6.14
2023-03-15T20:38:22.986Z,6.10
2023-03-15T20:40:57.375Z,6.13
2023-03-15T20:43:46.283Z,6.05
2023-03-15T20:46:17.255Z,6.14
2023-03-15T20:48:51.523Z,6.11
2023-03-15T20:51:31.544Z,6.17
2023-03-15T20:54:17.067Z,6.08
2023-03-15T20:56:55.786Z,6.18
2023-03-15T20:59:47.978Z,6.17
2023-03-15T21:05:21.705Z,6.10
2023-03-15T21:07:56.099Z,6.05
2023-03-15T21:10:46.597Z,6.16
2023-03-15T21:13:17.830Z,6.22
2023-03-15T21:15:59.744Z,6.17
2023-03-15T21:18:38.894Z,6.16
2023-03-15T21:21:18.087Z,6.03
2023-03-15T21:23:53.396Z,6.07
2023-03-15T21:26:24.003Z,6.08
2023-03-15T21:29:08.920Z,6.18
2023-03-15T21:31:50.864Z,6.14
2023-03-15T21:34:37.091Z,6.22
2023-03-15T21:37:28.347Z,6.23
2023-03-15T21:40:07.969Z,6.19
2023-03-15T21:42:45.880Z,6.16
2023-03-15T21:45:22.055Z,6.20
2023-03-15T21:47:55.548Z,6.19
2023-03-15T21:50:27.600Z,6.13
2023-03-15T21:53:03.937Z,6.07
2023-03-15T21:55:40.482Z,6.08
2023-03-15T21:58:10.328Z,6.05
2023-03-15T22:00:39.632Z,6.13
2023-03-15T22:03:15.516Z,6.06
2023-03-15T22:05:51.139Z,6.06
2023-03-15T22:08:43.812Z,6.09
2023-03-15T22:11:17.832Z,6.05
2023-03-15T22:13:53.225Z,6.04
2023-03-15T22:16:27.769Z,6.02
2023-03-15T22:19:01.135Z,5.98
2023-03-15T22:21:37.540Z,5.94
2023-03-15T22:24:08.813Z,5.95
2023-03-15T22:26:40.229Z,5.95
2023-03-15T22:29:18.734Z,5.87
2023-03-15T22:31:52.552Z,5.88
2023-03-15T22:34:20.710Z,5.88
2023-03-15T22:36:58.926Z,5.89
2023-03-15T22:39:29.997Z,5.86
2023-03-15T22:42:10.948Z,5.93
2023-03-15T22:44:46.704Z,5.93
2023-03-15T22:47:21.618Z,5.94
2023-03-15T22:49:56.077Z,5.88
2023-03-15T22:52:28.364Z,5.93
2023-03-15T22:54:58.894Z,5.90
2023-03-15T22:57:37.256Z,5.95
2023-03-15T23:00:15.509Z,5.94
2023-03-15T23:02:44.560Z,5.93
2023-03-15T23:05:18.322Z,5.91
2023-03-15T23:07:46.257Z,6.01
2023-03-15T23:10:19.936Z,5.95
2023-03-15T23:12:51.626Z,5.92
2023-03-15T23:15:35.540Z,6.03
2023-03-15T23:18:16.533Z,6.01
2023-03-15T23:20:47.985Z,5.95
2023-03-15T23:23:25.130Z,5.93
2023-03-15T23:25:59.801Z,5.97
2023-03-15T23:28:31.312Z,5.95
2023-03-15T23:31:06.274Z,5.93
2023-03-15T23:33:41.977Z,5.89
2023-03-15T23:36:12.272Z,5.90
2023-03-15T23:38:51.344Z,5.98
2023-03-15T23:41:24.482Z,5.90
2023-03-15T23:43:53.390Z,5.86
2023-03-15T23:46:29.012Z,5.83
2023-03-15T23:49:03.453Z,5.92
2023-03-15T23:51:34.570Z,5.88
2023-03-15T23:54:09.605Z,5.88
2023-03-15T23:56:51.295Z,5.86
2023-03-15T23:59:38.493Z,5.90
